sensor_id;sensor_type;location;lat;lon;timestamp;P1;durP1;ratioP1;P2;durP2;ratioP2
75984;SDS011;65033;44.660;37.758;2023-07-02T00:00:38;8.20;;;5.95;;
75984;SDS011;65033;44.660;37.758;2023-07-02T00:01:42;5.47;;;4.82;;
75984;SDS011;65033;44.660;37.758;2023-07-02T00:02:45;5.60;;;5.10;;
75984;SDS011;65033;44.660;37.758;2023-07-02T00:03:49;7.15;;;4.47;;
75984;SDS011;65033;44.660;37.758;2023-07-02T00:04:54;9.65;;;5.60;;
75984;SDS011;65033;44.660;37.758;2023-07-02T00:05:57;7.55;;;5.35;;
75984;SDS011;65033;44.660;37.758;2023-07-02T00:07:01;6.78;;;4.38;;
75984;SDS011;65033;44.660;37.758;2023-07-02T00:08:07;5.57;;;4.43;;
75984;SDS011;65033;44.660;37.758;2023-07-02T00:09:10;7.20;;;4.95;;
75984;SDS011;65033;44.660;37.758;2023-07-02T00:10:13;12.25;;;7.88;;
75984;SDS011;65033;44.660;37.758;2023-07-02T00:11:17;7.13;;;4.90;;
75984;SDS011;65033;44.660;37.758;2023-07-02T00:12:20;10.55;;;7.00;;
75984;SDS011;65033;44.660;37.758;2023-07-02T00:13:23;6.72;;;5.18;;
75984;SDS011;65033;44.660;37.758;2023-07-02T00:14:27;7.13;;;5.55;;
75984;SDS011;65033;44.660;37.758;2023-07-02T00:15:31;9.98;;;7.50;;
75984;SDS011;65033;44.660;37.758;2023-07-02T00:16:35;7.22;;;4.80;;
75984;SDS011;65033;44.660;37.758;2023-07-02T00:17:40;4.45;;;3.92;;
75984;SDS011;65033;44.660;37.758;2023-07-02T00:18:43;8.07;;;5.72;;
75984;SDS011;65033;44.660;37.758;2023-07-02T00:19:46;6.47;;;5.53;;
75984;SDS011;65033;44.660;37.758;2023-07-02T00:20:55;5.75;;;4.43;;
75984;SDS011;65033;44.660;37.758;2023-07-02T00:21:59;6.97;;;4.68;;
75984;SDS011;65033;44.660;37.758;2023-07-02T00:23:02;4.88;;;3.90;;
75984;SDS011;65033;44.660;37.758;2023-07-02T00:24:06;10.63;;;6.35;;
75984;SDS011;65033;44.660;37.758;2023-07-02T00:25:12;6.13;;;4.05;;
75984;SDS011;65033;44.660;37.758;2023-07-02T00:26:16;10.25;;;7.03;;
75984;SDS011;65033;44.660;37.758;2023-07-02T00:27:19;9.75;;;5.63;;
75984;SDS011;65033;44.660;37.758;2023-07-02T00:28:23;9.60;;;5.43;;
75984;SDS011;65033;44.660;37.758;2023-07-02T00:29:26;8.75;;;6.28;;
75984;SDS011;65033;44.660;37.758;2023-07-02T00:30:30;6.97;;;4.07;;
75984;SDS011;65033;44.660;37.758;2023-07-02T00:31:33;12.10;;;5.85;;
75984;SDS011;65033;44.660;37.758;2023-07-02T00:32:36;8.82;;;6.40;;
75984;SDS011;65033;44.660;37.758;2023-07-02T00:33:40;8.63;;;7.07;;
75984;SDS011;65033;44.660;37.758;2023-07-02T00:34:43;11.60;;;6.47;;
75984;SDS011;65033;44.660;37.758;2023-07-02T00:35:47;5.50;;;4.25;;
75984;SDS011;65033;44.660;37.758;2023-07-02T00:36:51;8.80;;;4.55;;
75984;SDS011;65033;44.660;37.758;2023-07-02T00:37:55;7.68;;;3.95;;
75984;SDS011;65033;44.660;37.758;2023-07-02T00:38:58;6.63;;;4.85;;
75984;SDS011;65033;44.660;37.758;2023-07-02T00:40:04;7.20;;;5.20;;
75984;SDS011;65033;44.660;37.758;2023-07-02T00:41:08;7.13;;;4.75;;
75984;SDS011;65033;44.660;37.758;2023-07-02T00:42:11;7.13;;;4.90;;
75984;SDS011;65033;44.660;37.758;2023-07-02T00:43:16;5.82;;;5.20;;
75984;SDS011;65033;44.660;37.758;2023-07-02T00:44:19;7.88;;;4.13;;
75984;SDS011;65033;44.660;37.758;2023-07-02T00:45:25;7.55;;;4.28;;
75984;SDS011;65033;44.660;37.758;2023-07-02T00:46:29;6.88;;;4.35;;
75984;SDS011;65033;44.660;37.758;2023-07-02T00:47:34;6.82;;;4.95;;
75984;SDS011;65033;44.660;37.758;2023-07-02T00:48:39;4.82;;;3.75;;
75984;SDS011;65033;44.660;37.758;2023-07-02T00:49:43;5.78;;;4.10;;
75984;SDS011;65033;44.660;37.758;2023-07-02T00:50:46;6.32;;;3.88;;
75984;SDS011;65033;44.660;37.758;2023-07-02T00:51:50;4.70;;;3.90;;
75984;SDS011;65033;44.660;37.758;2023-07-02T00:52:55;7.70;;;4.50;;
75984;SDS011;65033;44.660;37.758;2023-07-02T00:53:58;7.15;;;4.18;;
75984;SDS011;65033;44.660;37.758;2023-07-02T00:55:02;5.22;;;3.85;;
75984;SDS011;65033;44.660;37.758;2023-07-02T00:56:06;6.45;;;4.30;;
75984;SDS011;65033;44.660;37.758;2023-07-02T00:57:09;6.55;;;3.70;;
75984;SDS011;65033;44.660;37.758;2023-07-02T00:58:13;5.57;;;4.35;;
75984;SDS011;65033;44.660;37.758;2023-07-02T00:59:18;10.00;;;5.07;;
75984;SDS011;65033;44.660;37.758;2023-07-02T01:00:21;4.57;;;3.70;;
75984;SDS011;65033;44.660;37.758;2023-07-02T01:01:25;5.28;;;4.20;;
75984;SDS011;65033;44.660;37.758;2023-07-02T01:02:36;5.90;;;3.97;;
75984;SDS011;65033;44.660;37.758;2023-07-02T01:03:51;4.93;;;3.78;;
75984;SDS011;65033;44.660;37.758;2023-07-02T01:04:56;5.07;;;3.17;;
75984;SDS011;65033;44.660;37.758;2023-07-02T01:06:01;5.82;;;3.22;;
75984;SDS011;65033;44.660;37.758;2023-07-02T01:07:07;3.90;;;2.92;;
75984;SDS011;65033;44.660;37.758;2023-07-02T01:08:12;5.95;;;3.65;;
75984;SDS011;65033;44.660;37.758;2023-07-02T01:09:16;4.80;;;3.25;;
75984;SDS011;65033;44.660;37.758;2023-07-02T01:10:20;4.95;;;3.13;;
75984;SDS011;65033;44.660;37.758;2023-07-02T01:11:25;4.88;;;3.00;;
75984;SDS011;65033;44.660;37.758;2023-07-02T01:12:30;5.13;;;3.45;;
75984;SDS011;65033;44.660;37.758;2023-07-02T01:13:34;4.15;;;3.30;;
75984;SDS011;65033;44.660;37.758;2023-07-02T01:14:38;4.57;;;3.58;;
75984;SDS011;65033;44.660;37.758;2023-07-02T01:15:44;4.03;;;3.15;;
75984;SDS011;65033;44.660;37.758;2023-07-02T01:16:47;3.67;;;3.30;;
75984;SDS011;65033;44.660;37.758;2023-07-02T01:17:54;7.13;;;3.15;;
75984;SDS011;65033;44.660;37.758;2023-07-02T01:18:59;4.20;;;3.33;;
75984;SDS011;65033;44.660;37.758;2023-07-02T01:20:09;4.28;;;3.45;;
75984;SDS011;65033;44.660;37.758;2023-07-02T01:21:14;3.65;;;3.20;;
75984;SDS011;65033;44.660;37.758;2023-07-02T01:22:17;4.97;;;3.20;;
75984;SDS011;65033;44.660;37.758;2023-07-02T01:23:21;3.58;;;3.08;;
75984;SDS011;65033;44.660;37.758;2023-07-02T01:24:25;4.30;;;3.08;;
75984;SDS011;65033;44.660;37.758;2023-07-02T01:25:28;3.80;;;3.15;;
75984;SDS011;65033;44.660;37.758;2023-07-02T01:26:32;3.80;;;3.05;;
75984;SDS011;65033;44.660;37.758;2023-07-02T01:27:36;6.03;;;4.15;;
75984;SDS011;65033;44.660;37.758;2023-07-02T01:28:41;3.53;;;3.20;;
75984;SDS011;65033;44.660;37.758;2023-07-02T01:29:45;4.70;;;3.78;;
75984;SDS011;65033;44.660;37.758;2023-07-02T01:30:49;5.43;;;3.28;;
75984;SDS011;65033;44.660;37.758;2023-07-02T01:31:52;3.90;;;3.50;;
75984;SDS011;65033;44.660;37.758;2023-07-02T01:32:56;4.40;;;2.92;;
75984;SDS011;65033;44.660;37.758;2023-07-02T01:33:59;5.57;;;3.95;;
75984;SDS011;65033;44.660;37.758;2023-07-02T01:35:02;4.03;;;2.90;;
75984;SDS011;65033;44.660;37.758;2023-07-02T01:36:08;4.80;;;4.32;;
75984;SDS011;65033;44.660;37.758;2023-07-02T01:37:11;3.97;;;3.03;;
75984;SDS011;65033;44.660;37.758;2023-07-02T01:38:15;3.17;;;2.83;;
75984;SDS011;65033;44.660;37.758;2023-07-02T01:39:18;5.18;;;2.83;;
75984;SDS011;65033;44.660;37.758;2023-07-02T01:40:21;6.45;;;4.47;;
75984;SDS011;65033;44.660;37.758;2023-07-02T01:41:25;4.20;;;3.30;;
75984;SDS011;65033;44.660;37.758;2023-07-02T01:42:28;4.68;;;3.17;;
75984;SDS011;65033;44.660;37.758;2023-07-02T01:43:31;3.97;;;3.15;;
75984;SDS011;65033;44.660;37.758;2023-07-02T01:44:34;4.82;;;2.90;;
75984;SDS011;65033;44.660;37.758;2023-07-02T01:45:38;3.28;;;2.97;;
75984;SDS011;65033;44.660;37.758;2023-07-02T01:46:44;4.93;;;3.25;;
75984;SDS011;65033;44.660;37.758;2023-07-02T01:47:51;4.75;;;3.10;;
75984;SDS011;65033;44.660;37.758;2023-07-02T01:48:54;3.47;;;3.00;;
75984;SDS011;65033;44.660;37.758;2023-07-02T01:49:58;3.58;;;3.10;;
75984;SDS011;65033;44.660;37.758;2023-07-02T01:51:02;3.90;;;3.03;;
75984;SDS011;65033;44.660;37.758;2023-07-02T01:52:07;3.00;;;2.70;;
75984;SDS011;65033;44.660;37.758;2023-07-02T01:53:10;5.72;;;3.45;;
75984;SDS011;65033;44.660;37.758;2023-07-02T01:54:13;3.88;;;3.10;;
75984;SDS011;65033;44.660;37.758;2023-07-02T01:55:17;4.30;;;3.58;;
75984;SDS011;65033;44.660;37.758;2023-07-02T01:56:20;4.20;;;3.33;;
75984;SDS011;65033;44.660;37.758;2023-07-02T01:57:23;4.65;;;3.85;;
75984;SDS011;65033;44.660;37.758;2023-07-02T01:58:27;4.53;;;3.75;;
75984;SDS011;65033;44.660;37.758;2023-07-02T01:59:31;4.53;;;3.17;;
75984;SDS011;65033;44.660;37.758;2023-07-02T02:00:34;4.20;;;3.17;;
75984;SDS011;65033;44.660;37.758;2023-07-02T02:01:39;4.78;;;3.30;;
75984;SDS011;65033;44.660;37.758;2023-07-02T02:02:43;4.15;;;2.80;;
75984;SDS011;65033;44.660;37.758;2023-07-02T02:03:47;5.18;;;3.67;;
75984;SDS011;65033;44.660;37.758;2023-07-02T02:04:50;4.30;;;3.22;;
75984;SDS011;65033;44.660;37.758;2023-07-02T02:05:54;4.20;;;3.15;;
75984;SDS011;65033;44.660;37.758;2023-07-02T02:06:58;5.65;;;3.38;;
75984;SDS011;65033;44.660;37.758;2023-07-02T02:08:02;4.28;;;3.15;;
75984;SDS011;65033;44.660;37.758;2023-07-02T02:09:06;5.70;;;3.83;;
75984;SDS011;65033;44.660;37.758;2023-07-02T02:10:12;4.47;;;3.33;;
75984;SDS011;65033;44.660;37.758;2023-07-02T02:11:17;3.92;;;3.08;;
75984;SDS011;65033;44.660;37.758;2023-07-02T02:12:20;4.72;;;3.10;;
75984;SDS011;65033;44.660;37.758;2023-07-02T02:13:24;3.30;;;3.00;;
75984;SDS011;65033;44.660;37.758;2023-07-02T02:14:27;5.05;;;3.13;;
75984;SDS011;65033;44.660;37.758;2023-07-02T02:15:32;4.55;;;3.10;;
75984;SDS011;65033;44.660;37.758;2023-07-02T02:16:35;9.07;;;5.13;;
75984;SDS011;65033;44.660;37.758;2023-07-02T02:17:38;4.53;;;4.05;;
75984;SDS011;65033;44.660;37.758;2023-07-02T02:18:42;6.03;;;3.35;;
75984;SDS011;65033;44.660;37.758;2023-07-02T02:19:45;4.25;;;3.72;;
75984;SDS011;65033;44.660;37.758;2023-07-02T02:20:50;5.90;;;3.65;;
75984;SDS011;65033;44.660;37.758;2023-07-02T02:21:54;4.25;;;3.30;;
75984;SDS011;65033;44.660;37.758;2023-07-02T02:22:57;5.20;;;3.20;;
75984;SDS011;65033;44.660;37.758;2023-07-02T02:24:02;4.05;;;3.08;;
75984;SDS011;65033;44.660;37.758;2023-07-02T02:25:06;5.13;;;3.45;;
75984;SDS011;65033;44.660;37.758;2023-07-02T02:26:10;6.18;;;4.15;;
75984;SDS011;65033;44.660;37.758;2023-07-02T02:27:14;4.30;;;3.47;;
75984;SDS011;65033;44.660;37.758;2023-07-02T02:28:17;6.25;;;2.95;;
75984;SDS011;65033;44.660;37.758;2023-07-02T02:29:20;4.50;;;3.20;;
75984;SDS011;65033;44.660;37.758;2023-07-02T02:30:24;4.20;;;3.80;;
75984;SDS011;65033;44.660;37.758;2023-07-02T02:31:27;3.33;;;3.03;;
75984;SDS011;65033;44.660;37.758;2023-07-02T02:32:31;4.22;;;3.55;;
75984;SDS011;65033;44.660;37.758;2023-07-02T02:33:34;4.82;;;3.38;;
75984;SDS011;65033;44.660;37.758;2023-07-02T02:34:39;5.13;;;3.05;;
75984;SDS011;65033;44.660;37.758;2023-07-02T02:35:42;5.25;;;2.90;;
75984;SDS011;65033;44.660;37.758;2023-07-02T02:36:46;6.25;;;3.42;;
75984;SDS011;65033;44.660;37.758;2023-07-02T02:37:50;4.07;;;3.03;;
75984;SDS011;65033;44.660;37.758;2023-07-02T02:38:53;6.47;;;3.13;;
75984;SDS011;65033;44.660;37.758;2023-07-02T02:39:58;5.15;;;3.30;;
75984;SDS011;65033;44.660;37.758;2023-07-02T02:41:01;3.35;;;3.05;;
75984;SDS011;65033;44.660;37.758;2023-07-02T02:42:09;4.35;;;3.17;;
75984;SDS011;65033;44.660;37.758;2023-07-02T02:43:13;3.30;;;2.90;;
75984;SDS011;65033;44.660;37.758;2023-07-02T02:44:20;4.85;;;3.08;;
75984;SDS011;65033;44.660;37.758;2023-07-02T02:45:23;5.05;;;3.10;;
75984;SDS011;65033;44.660;37.758;2023-07-02T02:46:27;3.53;;;3.22;;
75984;SDS011;65033;44.660;37.758;2023-07-02T02:47:30;3.47;;;3.17;;
75984;SDS011;65033;44.660;37.758;2023-07-02T02:48:34;4.47;;;3.10;;
75984;SDS011;65033;44.660;37.758;2023-07-02T02:49:37;3.90;;;3.40;;
75984;SDS011;65033;44.660;37.758;2023-07-02T02:50:41;4.90;;;3.08;;
75984;SDS011;65033;44.660;37.758;2023-07-02T02:51:45;5.38;;;3.55;;
75984;SDS011;65033;44.660;37.758;2023-07-02T02:52:48;3.97;;;2.80;;
75984;SDS011;65033;44.660;37.758;2023-07-02T02:53:52;4.38;;;3.45;;
75984;SDS011;65033;44.660;37.758;2023-07-02T02:54:55;4.00;;;3.67;;
75984;SDS011;65033;44.660;37.758;2023-07-02T02:56:00;3.70;;;2.97;;
75984;SDS011;65033;44.660;37.758;2023-07-02T02:57:04;3.58;;;2.78;;
75984;SDS011;65033;44.660;37.758;2023-07-02T02:58:07;3.58;;;3.22;;
75984;SDS011;65033;44.660;37.758;2023-07-02T02:59:10;4.88;;;3.22;;
75984;SDS011;65033;44.660;37.758;2023-07-02T03:00:14;4.18;;;3.00;;
75984;SDS011;65033;44.660;37.758;2023-07-02T03:01:19;4.32;;;3.47;;
75984;SDS011;65033;44.660;37.758;2023-07-02T03:02:23;3.40;;;2.88;;
75984;SDS011;65033;44.660;37.758;2023-07-02T03:03:27;8.13;;;2.80;;
75984;SDS011;65033;44.660;37.758;2023-07-02T03:04:30;3.85;;;3.13;;
75984;SDS011;65033;44.660;37.758;2023-07-02T03:05:34;3.90;;;3.00;;
75984;SDS011;65033;44.660;37.758;2023-07-02T03:06:37;5.38;;;2.88;;
75984;SDS011;65033;44.660;37.758;2023-07-02T03:07:40;3.83;;;2.92;;
75984;SDS011;65033;44.660;37.758;2023-07-02T03:08:44;4.90;;;2.97;;
75984;SDS011;65033;44.660;37.758;2023-07-02T03:09:47;3.58;;;2.70;;
75984;SDS011;65033;44.660;37.758;2023-07-02T03:10:54;5.07;;;2.92;;
75984;SDS011;65033;44.660;37.758;2023-07-02T03:11:58;4.70;;;2.92;;
75984;SDS011;65033;44.660;37.758;2023-07-02T03:13:02;3.35;;;2.45;;
75984;SDS011;65033;44.660;37.758;2023-07-02T03:14:05;4.65;;;3.10;;
75984;SDS011;65033;44.660;37.758;2023-07-02T03:15:11;5.13;;;2.88;;
75984;SDS011;65033;44.660;37.758;2023-07-02T03:16:27;3.88;;;3.03;;
75984;SDS011;65033;44.660;37.758;2023-07-02T03:17:30;2.92;;;2.60;;
75984;SDS011;65033;44.660;37.758;2023-07-02T03:18:34;5.35;;;2.92;;
75984;SDS011;65033;44.660;37.758;2023-07-02T03:19:37;3.30;;;2.55;;
75984;SDS011;65033;44.660;37.758;2023-07-02T03:20:41;4.78;;;3.40;;
75984;SDS011;65033;44.660;37.758;2023-07-02T03:21:44;3.90;;;2.70;;
75984;SDS011;65033;44.660;37.758;2023-07-02T03:22:53;3.22;;;2.92;;
75984;SDS011;65033;44.660;37.758;2023-07-02T03:23:56;3.00;;;2.70;;
75984;SDS011;65033;44.660;37.758;2023-07-02T03:25:00;3.45;;;3.00;;
75984;SDS011;65033;44.660;37.758;2023-07-02T03:26:06;5.20;;;3.50;;
75984;SDS011;65033;44.660;37.758;2023-07-02T03:27:10;3.78;;;2.72;;
75984;SDS011;65033;44.660;37.758;2023-07-02T03:28:13;3.33;;;2.70;;
75984;SDS011;65033;44.660;37.758;2023-07-02T03:29:17;5.50;;;2.70;;
75984;SDS011;65033;44.660;37.758;2023-07-02T03:30:22;4.07;;;2.92;;
75984;SDS011;65033;44.660;37.758;2023-07-02T03:31:29;3.90;;;3.17;;
75984;SDS011;65033;44.660;37.758;2023-07-02T03:32:32;5.05;;;2.50;;
75984;SDS011;65033;44.660;37.758;2023-07-02T03:33:35;3.03;;;2.65;;
75984;SDS011;65033;44.660;37.758;2023-07-02T03:34:41;4.03;;;2.33;;
75984;SDS011;65033;44.660;37.758;2023-07-02T03:35:47;3.58;;;3.00;;
75984;SDS011;65033;44.660;37.758;2023-07-02T03:36:53;4.47;;;3.30;;
75984;SDS011;65033;44.660;37.758;2023-07-02T03:38:00;4.38;;;3.30;;
75984;SDS011;65033;44.660;37.758;2023-07-02T03:39:05;4.10;;;3.03;;
75984;SDS011;65033;44.660;37.758;2023-07-02T03:40:12;3.00;;;2.55;;
75984;SDS011;65033;44.660;37.758;2023-07-02T03:41:17;3.50;;;2.75;;
75984;SDS011;65033;44.660;37.758;2023-07-02T03:42:26;4.75;;;2.83;;
75984;SDS011;65033;44.660;37.758;2023-07-02T03:43:31;4.50;;;3.10;;
75984;SDS011;65033;44.660;37.758;2023-07-02T03:44:35;5.03;;;2.80;;
75984;SDS011;65033;44.660;37.758;2023-07-02T03:45:38;4.18;;;2.88;;
75984;SDS011;65033;44.660;37.758;2023-07-02T03:46:41;5.80;;;3.13;;
75984;SDS011;65033;44.660;37.758;2023-07-02T03:47:45;3.58;;;2.85;;
75984;SDS011;65033;44.660;37.758;2023-07-02T03:48:52;3.20;;;2.63;;
75984;SDS011;65033;44.660;37.758;2023-07-02T03:49:58;3.20;;;2.90;;
75984;SDS011;65033;44.660;37.758;2023-07-02T03:51:07;6.40;;;2.97;;
75984;SDS011;65033;44.660;37.758;2023-07-02T03:52:15;4.32;;;3.10;;
75984;SDS011;65033;44.660;37.758;2023-07-02T03:53:20;3.95;;;2.63;;
75984;SDS011;65033;44.660;37.758;2023-07-02T03:54:25;3.85;;;2.88;;
75984;SDS011;65033;44.660;37.758;2023-07-02T03:55:28;4.75;;;3.08;;
75984;SDS011;65033;44.660;37.758;2023-07-02T03:56:35;4.07;;;2.70;;
75984;SDS011;65033;44.660;37.758;2023-07-02T03:57:48;2.65;;;2.45;;
75984;SDS011;65033;44.660;37.758;2023-07-02T03:58:57;12.77;;;9.05;;
75984;SDS011;65033;44.660;37.758;2023-07-02T04:00:22;6.03;;;2.92;;
75984;SDS011;65033;44.660;37.758;2023-07-02T04:01:30;7.85;;;2.88;;
75984;SDS011;65033;44.660;37.758;2023-07-02T04:02:36;4.82;;;2.92;;
75984;SDS011;65033;44.660;37.758;2023-07-02T04:03:48;4.47;;;2.78;;
75984;SDS011;65033;44.660;37.758;2023-07-02T04:04:56;4.70;;;2.28;;
75984;SDS011;65033;44.660;37.758;2023-07-02T04:06:05;2.88;;;2.50;;
75984;SDS011;65033;44.660;37.758;2023-07-02T04:07:11;5.60;;;3.00;;
75984;SDS011;65033;44.660;37.758;2023-07-02T04:08:14;5.22;;;3.08;;
75984;SDS011;65033;44.660;37.758;2023-07-02T04:09:20;5.65;;;2.72;;
75984;SDS011;65033;44.660;37.758;2023-07-02T04:10:24;3.90;;;3.15;;
75984;SDS011;65033;44.660;37.758;2023-07-02T04:11:52;4.03;;;2.85;;
75984;SDS011;65033;44.660;37.758;2023-07-02T04:13:00;3.75;;;2.67;;
75984;SDS011;65033;44.660;37.758;2023-07-02T04:14:07;4.63;;;2.88;;
75984;SDS011;65033;44.660;37.758;2023-07-02T04:15:10;6.15;;;3.00;;
75984;SDS011;65033;44.660;37.758;2023-07-02T04:16:21;5.15;;;3.15;;
75984;SDS011;65033;44.660;37.758;2023-07-02T04:17:35;3.53;;;2.45;;
75984;SDS011;65033;44.660;37.758;2023-07-02T04:18:47;5.13;;;2.67;;
75984;SDS011;65033;44.660;37.758;2023-07-02T04:20:05;3.45;;;2.45;;
75984;SDS011;65033;44.660;37.758;2023-07-02T04:21:13;4.53;;;2.75;;
75984;SDS011;65033;44.660;37.758;2023-07-02T04:22:25;7.18;;;2.85;;
75984;SDS011;65033;44.660;37.758;2023-07-02T04:23:30;6.57;;;3.30;;
75984;SDS011;65033;44.660;37.758;2023-07-02T04:24:36;5.03;;;2.78;;
75984;SDS011;65033;44.660;37.758;2023-07-02T04:25:41;4.97;;;2.97;;
75984;SDS011;65033;44.660;37.758;2023-07-02T04:26:44;2.97;;;2.53;;
75984;SDS011;65033;44.660;37.758;2023-07-02T04:27:52;3.72;;;2.65;;
75984;SDS011;65033;44.660;37.758;2023-07-02T04:29:02;3.33;;;2.70;;
75984;SDS011;65033;44.660;37.758;2023-07-02T04:30:07;4.30;;;2.72;;
75984;SDS011;65033;44.660;37.758;2023-07-02T04:31:11;3.08;;;2.55;;
75984;SDS011;65033;44.660;37.758;2023-07-02T04:32:17;4.45;;;2.85;;
75984;SDS011;65033;44.660;37.758;2023-07-02T04:33:20;4.15;;;2.92;;
75984;SDS011;65033;44.660;37.758;2023-07-02T04:34:26;3.97;;;3.17;;
75984;SDS011;65033;44.660;37.758;2023-07-02T04:35:32;3.67;;;2.45;;
75984;SDS011;65033;44.660;37.758;2023-07-02T04:36:39;4.18;;;2.50;;
75984;SDS011;65033;44.660;37.758;2023-07-02T04:37:42;3.85;;;2.55;;
75984;SDS011;65033;44.660;37.758;2023-07-02T04:38:47;4.82;;;2.47;;
75984;SDS011;65033;44.660;37.758;2023-07-02T04:39:53;3.28;;;2.45;;
75984;SDS011;65033;44.660;37.758;2023-07-02T04:40:58;4.88;;;3.05;;
75984;SDS011;65033;44.660;37.758;2023-07-02T04:42:10;4.70;;;2.83;;
75984;SDS011;65033;44.660;37.758;2023-07-02T04:43:21;3.95;;;3.00;;
75984;SDS011;65033;44.660;37.758;2023-07-02T04:44:27;3.97;;;3.20;;
75984;SDS011;65033;44.660;37.758;2023-07-02T04:45:33;4.88;;;3.05;;
75984;SDS011;65033;44.660;37.758;2023-07-02T04:46:40;4.93;;;3.33;;
75984;SDS011;65033;44.660;37.758;2023-07-02T04:47:49;6.05;;;3.22;;
75984;SDS011;65033;44.660;37.758;2023-07-02T04:48:55;4.15;;;3.80;;
75984;SDS011;65033;44.660;37.758;2023-07-02T04:49:58;5.55;;;3.30;;
75984;SDS011;65033;44.660;37.758;2023-07-02T04:51:02;3.47;;;2.97;;
75984;SDS011;65033;44.660;37.758;2023-07-02T04:52:08;4.60;;;3.10;;
75984;SDS011;65033;44.660;37.758;2023-07-02T04:53:13;4.45;;;3.30;;
75984;SDS011;65033;44.660;37.758;2023-07-02T04:54:17;3.40;;;2.83;;
75984;SDS011;65033;44.660;37.758;2023-07-02T04:55:20;4.30;;;3.45;;
75984;SDS011;65033;44.660;37.758;2023-07-02T04:56:28;4.35;;;2.90;;
75984;SDS011;65033;44.660;37.758;2023-07-02T04:57:34;5.28;;;3.08;;
75984;SDS011;65033;44.660;37.758;2023-07-02T04:58:41;3.20;;;2.80;;
75984;SDS011;65033;44.660;37.758;2023-07-02T04:59:46;4.45;;;3.03;;
75984;SDS011;65033;44.660;37.758;2023-07-02T05:00:50;6.00;;;3.15;;
75984;SDS011;65033;44.660;37.758;2023-07-02T05:02:01;4.07;;;2.47;;
75984;SDS011;65033;44.660;37.758;2023-07-02T05:03:05;2.85;;;2.60;;
75984;SDS011;65033;44.660;37.758;2023-07-02T05:04:09;3.33;;;2.22;;
75984;SDS011;65033;44.660;37.758;2023-07-02T05:05:14;3.13;;;2.22;;
75984;SDS011;65033;44.660;37.758;2023-07-02T05:06:17;3.97;;;2.55;;
75984;SDS011;65033;44.660;37.758;2023-07-02T05:07:21;5.55;;;2.38;;
75984;SDS011;65033;44.660;37.758;2023-07-02T05:08:25;4.25;;;2.25;;
75984;SDS011;65033;44.660;37.758;2023-07-02T05:09:28;3.05;;;2.13;;
75984;SDS011;65033;44.660;37.758;2023-07-02T05:10:32;4.72;;;2.90;;
75984;SDS011;65033;44.660;37.758;2023-07-02T05:11:35;3.45;;;2.45;;
75984;SDS011;65033;44.660;37.758;2023-07-02T05:12:40;3.92;;;2.97;;
75984;SDS011;65033;44.660;37.758;2023-07-02T05:13:47;5.82;;;2.47;;
75984;SDS011;65033;44.660;37.758;2023-07-02T05:14:50;5.78;;;2.60;;
75984;SDS011;65033;44.660;37.758;2023-07-02T05:15:55;4.05;;;2.45;;
75984;SDS011;65033;44.660;37.758;2023-07-02T05:16:59;4.80;;;2.72;;
75984;SDS011;65033;44.660;37.758;2023-07-02T05:18:02;3.35;;;3.00;;
75984;SDS011;65033;44.660;37.758;2023-07-02T05:19:08;4.65;;;2.75;;
75984;SDS011;65033;44.660;37.758;2023-07-02T05:20:11;4.95;;;2.90;;
75984;SDS011;65033;44.660;37.758;2023-07-02T05:21:17;4.47;;;2.47;;
75984;SDS011;65033;44.660;37.758;2023-07-02T05:22:21;12.05;;;2.85;;
75984;SDS011;65033;44.660;37.758;2023-07-02T05:23:24;5.03;;;2.63;;
75984;SDS011;65033;44.660;37.758;2023-07-02T05:24:35;3.08;;;2.22;;
75984;SDS011;65033;44.660;37.758;2023-07-02T05:25:43;3.92;;;2.22;;
75984;SDS011;65033;44.660;37.758;2023-07-02T05:26:48;3.88;;;2.30;;
75984;SDS011;65033;44.660;37.758;2023-07-02T05:27:55;3.47;;;2.28;;
75984;SDS011;65033;44.660;37.758;2023-07-02T05:29:02;6.90;;;2.53;;
75984;SDS011;65033;44.660;37.758;2023-07-02T05:30:06;5.70;;;2.60;;
75984;SDS011;65033;44.660;37.758;2023-07-02T05:31:10;3.60;;;2.25;;
75984;SDS011;65033;44.660;37.758;2023-07-02T05:32:17;4.07;;;3.03;;
75984;SDS011;65033;44.660;37.758;2023-07-02T05:33:23;4.45;;;2.30;;
75984;SDS011;65033;44.660;37.758;2023-07-02T05:34:26;4.07;;;2.25;;
75984;SDS011;65033;44.660;37.758;2023-07-02T05:35:32;9.23;;;3.08;;
75984;SDS011;65033;44.660;37.758;2023-07-02T05:36:38;7.25;;;3.05;;
75984;SDS011;65033;44.660;37.758;2023-07-02T05:37:48;9.15;;;2.70;;
75984;SDS011;65033;44.660;37.758;2023-07-02T05:38:54;5.30;;;2.58;;
75984;SDS011;65033;44.660;37.758;2023-07-02T05:40:03;4.85;;;2.22;;
75984;SDS011;65033;44.660;37.758;2023-07-02T05:41:07;7.00;;;2.50;;
75984;SDS011;65033;44.660;37.758;2023-07-02T05:42:11;2.78;;;2.40;;
75984;SDS011;65033;44.660;37.758;2023-07-02T05:43:15;4.10;;;2.47;;
75984;SDS011;65033;44.660;37.758;2023-07-02T05:44:20;2.85;;;2.25;;
75984;SDS011;65033;44.660;37.758;2023-07-02T05:45:26;6.13;;;2.42;;
75984;SDS011;65033;44.660;37.758;2023-07-02T05:46:31;5.45;;;2.28;;
75984;SDS011;65033;44.660;37.758;2023-07-02T05:47:34;2.83;;;2.47;;
75984;SDS011;65033;44.660;37.758;2023-07-02T05:48:41;13.80;;;2.80;;
75984;SDS011;65033;44.660;37.758;2023-07-02T05:49:44;7.32;;;2.03;;
75984;SDS011;65033;44.660;37.758;2023-07-02T05:50:48;4.60;;;2.28;;
75984;SDS011;65033;44.660;37.758;2023-07-02T05:51:51;5.97;;;2.60;;
75984;SDS011;65033;44.660;37.758;2023-07-02T05:52:57;3.35;;;2.90;;
75984;SDS011;65033;44.660;37.758;2023-07-02T05:54:02;5.68;;;2.08;;
75984;SDS011;65033;44.660;37.758;2023-07-02T05:55:07;4.60;;;2.35;;
75984;SDS011;65033;44.660;37.758;2023-07-02T05:56:20;5.75;;;2.25;;
75984;SDS011;65033;44.660;37.758;2023-07-02T05:57:25;5.45;;;2.03;;
75984;SDS011;65033;44.660;37.758;2023-07-02T05:58:32;6.40;;;2.28;;
75984;SDS011;65033;44.660;37.758;2023-07-02T05:59:46;3.97;;;2.00;;
75984;SDS011;65033;44.660;37.758;2023-07-02T06:00:55;4.47;;;2.50;;
75984;SDS011;65033;44.660;37.758;2023-07-02T06:02:05;7.03;;;2.22;;
75984;SDS011;65033;44.660;37.758;2023-07-02T06:03:11;6.82;;;2.45;;
75984;SDS011;65033;44.660;37.758;2023-07-02T06:04:21;4.82;;;2.30;;
75984;SDS011;65033;44.660;37.758;2023-07-02T06:05:24;4.18;;;2.42;;
75984;SDS011;65033;44.660;37.758;2023-07-02T06:06:28;6.93;;;2.20;;
75984;SDS011;65033;44.660;37.758;2023-07-02T06:07:31;10.63;;;2.53;;
75984;SDS011;65033;44.660;37.758;2023-07-02T06:08:35;3.35;;;2.20;;
75984;SDS011;65033;44.660;37.758;2023-07-02T06:09:39;2.83;;;2.22;;
75984;SDS011;65033;44.660;37.758;2023-07-02T06:10:43;4.53;;;3.67;;
75984;SDS011;65033;44.660;37.758;2023-07-02T06:11:46;3.55;;;2.22;;
75984;SDS011;65033;44.660;37.758;2023-07-02T06:12:50;4.75;;;2.28;;
75984;SDS011;65033;44.660;37.758;2023-07-02T06:13:54;4.20;;;2.08;;
75984;SDS011;65033;44.660;37.758;2023-07-02T06:14:59;3.13;;;2.38;;
75984;SDS011;65033;44.660;37.758;2023-07-02T06:16:06;4.57;;;2.22;;
75984;SDS011;65033;44.660;37.758;2023-07-02T06:17:09;4.45;;;1.95;;
75984;SDS011;65033;44.660;37.758;2023-07-02T06:18:14;4.20;;;2.03;;
75984;SDS011;65033;44.660;37.758;2023-07-02T06:19:19;6.72;;;2.15;;
75984;SDS011;65033;44.660;37.758;2023-07-02T06:20:23;3.45;;;2.78;;
75984;SDS011;65033;44.660;37.758;2023-07-02T06:21:29;3.40;;;2.20;;
75984;SDS011;65033;44.660;37.758;2023-07-02T06:22:34;3.42;;;2.25;;
75984;SDS011;65033;44.660;37.758;2023-07-02T06:23:40;4.80;;;2.40;;
75984;SDS011;65033;44.660;37.758;2023-07-02T06:24:49;4.30;;;2.42;;
75984;SDS011;65033;44.660;37.758;2023-07-02T06:25:53;2.97;;;2.22;;